createdAt,value
2022-08-07T00:02:35.285Z,21.90
2022-08-07T00:04:04.418Z,22.37
2022-08-07T00:06:33.886Z,22.65
2022-08-07T00:09:16.712Z,21.76
2022-08-07T00:11:48.125Z,21.45
2022-08-07T00:14:25.415Z,21.60
2022-08-07T00:16:57.768Z,22.47
2022-08-07T00:19:25.954Z,21.84
2022-08-07T00:22:02.294Z,22.14
2022-08-07T00:24:31.753Z,22.51
2022-08-07T00:27:07.136Z,21.51
2022-08-07T00:29:37.215Z,21.64
2022-08-07T00:32:06.908Z,22.38
2022-08-07T00:34:35.450Z,22.24
2022-08-07T00:37:05.123Z,23.10
2022-08-07T00:39:34.703Z,23.30
2022-08-07T00:42:05.323Z,23.63
2022-08-07T00:44:33.764Z,23.50
2022-08-07T00:47:06.525Z,23.88
2022-08-07T00:50:19.535Z,23.75
2022-08-07T00:52:30.215Z,23.82
2022-08-07T00:55:04.759Z,24.03
2022-08-07T00:57:37.712Z,24.04
2022-08-07T01:00:11.943Z,23.24
2022-08-07T01:02:39.714Z,23.74
2022-08-07T01:05:18.746Z,23.34
2022-08-07T01:07:46.661Z,23.04
2022-08-07T01:10:18.399Z,23.34
2022-08-07T01:12:53.989Z,22.09
2022-08-07T01:15:22.824Z,22.85
2022-08-07T01:18:03.666Z,23.01
2022-08-07T01:20:43.912Z,21.55
2022-08-07T01:23:34.692Z,21.11
2022-08-07T01:26:06.094Z,22.00
2022-08-07T01:28:33.324Z,21.82
2022-08-07T01:31:01.678Z,22.64
2022-08-07T01:33:55.191Z,21.91
2022-08-07T01:36:17.210Z,22.45
2022-08-07T01:38:44.291Z,22.41
2022-08-07T01:41:11.932Z,22.35
2022-08-07T01:43:53.727Z,22.90
2022-08-07T01:46:21.338Z,21.55
2022-08-07T01:48:49.188Z,22.44
2022-08-07T01:52:01.340Z,22.11
2022-08-07T01:54:12.391Z,22.40
2022-08-07T01:56:49.344Z,21.70
2022-08-07T01:59:30.876Z,21.16
2022-08-07T02:02:06.759Z,21.42
2022-08-07T02:04:55.620Z,21.21
2022-08-07T02:07:35.937Z,20.69
2022-08-07T02:10:14.695Z,20.82
2022-08-07T02:12:43.084Z,21.00
2022-08-07T02:15:14.699Z,21.82
2022-08-07T02:17:49.847Z,21.69
2022-08-07T02:20:23.905Z,22.22
2022-08-07T02:22:59.550Z,21.92
2022-08-07T02:26:10.371Z,22.46
2022-08-07T02:28:24.563Z,21.74
2022-08-07T02:30:53.328Z,21.86
2022-08-07T02:33:20.617Z,21.86
2022-08-07T02:36:28.755Z,22.00
2022-08-07T02:38:39.163Z,22.56
2022-08-07T02:41:21.819Z,22.27
2022-08-07T02:43:49.515Z,21.99
2022-08-07T02:46:18.805Z,22.55
2022-08-07T02:48:54.747Z,22.31
2022-08-07T02:51:41.899Z,21.76
2022-08-07T02:54:09.843Z,21.51
2022-08-07T02:56:40.398Z,20.76
2022-08-07T02:59:11.788Z,21.01
2022-08-07T03:01:40.372Z,21.09
2022-08-07T03:04:12.909Z,21.52
2022-08-07T03:06:45.967Z,21.32
2022-08-07T03:09:41.852Z,21.18
2022-08-07T03:12:07.981Z,20.66
2022-08-07T03:14:39.933Z,21.17
2022-08-07T03:17:08.651Z,21.17
2022-08-07T03:19:37.101Z,21.43
2022-08-07T03:22:05.833Z,20.46
2022-08-07T03:24:34.263Z,20.74
2022-08-07T03:27:05.446Z,20.86
2022-08-07T03:29:46.030Z,20.85
2022-08-07T03:32:19.501Z,20.49
2022-08-07T03:35:01.077Z,20.69
2022-08-07T03:37:46.343Z,19.88
2022-08-07T03:40:20.774Z,19.23
2022-08-07T03:42:50.842Z,18.65
2022-08-07T03:45:30.285Z,18.83
2022-08-07T03:47:59.175Z,19.29
2022-08-07T03:50:28.604Z,19.64
2022-08-07T03:52:58.315Z,19.80
2022-08-07T03:55:57.763Z,19.70
2022-08-07T03:59:05.150Z,20.43
2022-08-07T04:01:00.469Z,19.81
2022-08-07T04:03:27.574Z,20.21
2022-08-07T04:06:10.185Z,19.89
2022-08-07T04:08:57.492Z,20.91
2022-08-07T04:12:23.581Z,20.78
2022-08-07T04:14:37.794Z,20.60
2022-08-07T04:16:59.748Z,20.81
2022-08-07T04:19:51.080Z,20.77
2022-08-07T04:22:18.008Z,21.30
2022-08-07T04:24:46.265Z,20.69
2022-08-07T04:27:15.223Z,21.88
2022-08-07T04:30:02.381Z,21.33
2022-08-07T04:32:34.585Z,21.35
2022-08-07T04:35:05.599Z,21.58
2022-08-07T04:38:01.060Z,22.07
2022-08-07T04:40:20.451Z,21.27
2022-08-07T04:42:51.785Z,21.64
2022-08-07T04:45:52.085Z,21.56
2022-08-07T04:48:40.293Z,21.73
2022-08-07T04:51:18.309Z,21.86
2022-08-07T04:54:06.018Z,21.70
2022-08-07T04:58:12.865Z,21.81
2022-08-07T05:00:10.823Z,21.47
2022-08-07T05:03:38.681Z,21.95
2022-08-07T05:06:19.649Z,22.30
2022-08-07T05:09:14.435Z,22.51
2022-08-07T05:11:58.835Z,23.18
2022-08-07T05:14:52.168Z,22.78
2022-08-07T05:17:52.932Z,22.56
2022-08-07T05:20:16.978Z,23.51
2022-08-07T05:22:46.449Z,22.02
2022-08-07T05:25:25.884Z,22.60
2022-08-07T05:28:20.109Z,23.21
2022-08-07T05:30:48.538Z,23.44
2022-08-07T05:33:16.043Z,23.21
2022-08-07T05:35:46.003Z,22.49
2022-08-07T05:39:00.981Z,23.34
2022-08-07T05:41:05.314Z,23.77
2022-08-07T05:43:49.569Z,23.31
2022-08-07T05:46:27.441Z,24.01
2022-08-07T05:48:58.162Z,23.93
2022-08-07T05:51:31.542Z,23.54
2022-08-07T05:54:12.677Z,22.89
2022-08-07T05:56:51.334Z,23.24
2022-08-07T05:59:19.886Z,22.71
2022-08-07T06:01:49.004Z,23.23
2022-08-07T06:04:17.561Z,22.92
2022-08-07T06:06:46.399Z,23.34
2022-08-07T06:09:15.800Z,24.01
2022-08-07T06:11:43.741Z,23.16
2022-08-07T06:14:21.350Z,23.20
2022-08-07T06:16:57.143Z,23.57
2022-08-07T06:19:57.590Z,23.76
2022-08-07T06:22:22.870Z,22.98
2022-08-07T06:24:56.797Z,22.57
2022-08-07T06:28:00.516Z,23.46
2022-08-07T06:30:24.308Z,24.07
2022-08-07T06:33:00.069Z,24.33
2022-08-07T06:35:39.059Z,24.37
2022-08-07T06:38:20.657Z,24.84
2022-08-07T06:40:51.982Z,25.62
2022-08-07T06:43:22.462Z,24.87
2022-08-07T06:45:50.889Z,25.35
2022-08-07T06:48:25.079Z,26.27
2022-08-07T06:50:54.106Z,25.06
2022-08-07T06:55:29.248Z,24.56
2022-08-07T06:56:15.434Z,26.08
2022-08-07T07:00:12.088Z,26.00
2022-08-07T07:01:41.859Z,25.68
2022-08-07T07:04:28.221Z,26.41
2022-08-07T07:07:01.292Z,26.95
2022-08-07T07:09:31.279Z,26.70
2022-08-07T07:12:09.953Z,26.99
2022-08-07T07:15:04.150Z,25.70
2022-08-07T07:17:54.760Z,26.61
2022-08-07T07:20:30.282Z,27.09
2022-08-07T07:24:06.627Z,26.22
2022-08-07T07:26:34.133Z,27.39
2022-08-07T07:29:55.842Z,28.03
2022-08-07T07:31:48.439Z,27.18
2022-08-07T07:34:20.379Z,28.13
2022-08-07T07:36:54.035Z,28.24
2022-08-07T07:39:23.102Z,28.31
2022-08-07T07:42:13.080Z,28.18
2022-08-07T07:44:42.666Z,29.08
2022-08-07T07:47:15.923Z,28.72
2022-08-07T07:50:36.641Z,29.21
2022-08-07T07:52:38.317Z,28.48
2022-08-07T07:55:07.831Z,29.40
2022-08-07T07:57:50.516Z,29.55
2022-08-07T08:00:29.675Z,30.19
2022-08-07T08:03:08.256Z,31.04
2022-08-07T08:05:50.875Z,30.29
2022-08-07T08:08:35.238Z,29.28
2022-08-07T08:11:05.619Z,30.31
2022-08-07T08:13:54.365Z,30.91
2022-08-07T08:16:30.059Z,30.31
2022-08-07T08:19:00.258Z,28.79
2022-08-07T08:22:03.130Z,29.19
2022-08-07T08:24:57.308Z,29.73
2022-08-07T08:27:40.885Z,31.00
2022-08-07T08:30:24.987Z,32.15
2022-08-07T08:32:54.745Z,31.08
2022-08-07T08:35:28.553Z,30.32
2022-08-07T08:38:00.789Z,30.47
2022-08-07T08:40:38.170Z,30.89
2022-08-07T08:43:09.646Z,30.69
2022-08-07T08:46:00.816Z,31.26
2022-08-07T08:48:38.377Z,30.68
2022-08-07T08:52:14.033Z,30.57
2022-08-07T08:54:43.602Z,29.51
2022-08-07T08:57:45.132Z,31.31
2022-08-07T09:00:12.881Z,32.06
2022-08-07T09:02:57.706Z,31.23
2022-08-07T09:05:46.104Z,31.73
2022-08-07T09:08:28.505Z,33.45
2022-08-07T09:11:24.831Z,32.19
2022-08-07T09:14:14.951Z,30.37
2022-08-07T09:16:47.838Z,32.74
2022-08-07T09:19:52.601Z,33.93
2022-08-07T09:24:32.369Z,33.99
2022-08-07T09:25:59.471Z,34.78
2022-08-07T09:30:01.486Z,34.15
2022-08-07T09:31:38.677Z,34.10
2022-08-07T09:34:16.775Z,32.32
2022-08-07T09:37:12.070Z,34.04
2022-08-07T09:39:54.190Z,33.84
2022-08-07T09:42:35.444Z,34.65
2022-08-07T09:47:42.382Z,33.64
2022-08-07T09:48:11.349Z,31.79
2022-08-07T09:51:25.951Z,31.15
2022-08-07T09:54:02.033Z,31.48
2022-08-07T09:56:44.762Z,31.23
2022-08-07T10:00:00.521Z,32.34
2022-08-07T10:04:06.090Z,34.02
2022-08-07T10:06:35.609Z,33.24
2022-08-07T10:09:08.638Z,32.30
2022-08-07T10:12:15.364Z,32.41
2022-08-07T10:15:37.616Z,33.86
2022-08-07T10:18:26.398Z,31.94
2022-08-07T10:22:12.665Z,31.92
2022-08-07T10:24:40.381Z,31.52
2022-08-07T10:27:20.917Z,32.41
2022-08-07T10:30:06.571Z,32.94
2022-08-07T10:32:53.006Z,31.79
2022-08-07T10:35:55.382Z,32.87
2022-08-07T10:38:36.235Z,33.89
2022-08-07T10:41:51.307Z,34.32
2022-08-07T10:44:38.520Z,34.33
2022-08-07T10:47:26.093Z,33.57
2022-08-07T10:50:19.932Z,32.45
2022-08-07T10:53:07.932Z,30.81
2022-08-07T10:55:50.714Z,30.76
2022-08-07T10:58:36.710Z,32.99
2022-08-07T11:01:22.287Z,31.77
2022-08-07T11:04:23.192Z,31.18
2022-08-07T11:08:00.745Z,30.44
2022-08-07T11:10:32.626Z,29.60
2022-08-07T11:13:04.451Z,30.63
2022-08-07T11:15:36.522Z,32.12
2022-08-07T11:18:17.744Z,32.03
2022-08-07T11:21:05.266Z,31.93
2022-08-07T11:23:45.446Z,32.43
2022-08-07T11:26:18.171Z,33.48
2022-08-07T11:28:55.431Z,30.45
2022-08-07T11:31:35.275Z,30.77
2022-08-07T11:34:25.589Z,30.72
2022-08-07T11:37:00.636Z,31.45
2022-08-07T11:39:59.220Z,31.74
2022-08-07T11:42:34.392Z,31.87
2022-08-07T11:45:23.749Z,33.09
2022-08-07T11:48:35.517Z,32.97
2022-08-07T11:51:41.270Z,33.89
2022-08-07T11:54:54.843Z,32.76
2022-08-07T11:57:59.385Z,32.90
2022-08-07T12:00:54.990Z,32.92
2022-08-07T12:03:52.129Z,32.10
2022-08-07T12:06:39.086Z,32.33
2022-08-07T12:09:25.439Z,30.74
2022-08-07T12:12:16.333Z,31.05
2022-08-07T12:15:35.904Z,32.91
2022-08-07T12:18:08.057Z,33.32
2022-08-07T12:21:14.987Z,32.31
2022-08-07T12:24:06.249Z,32.58
2022-08-07T12:27:03.501Z,32.96
2022-08-07T12:29:47.819Z,34.02
2022-08-07T12:32:30.784Z,33.64
2022-08-07T12:34:58.946Z,32.33
2022-08-07T12:38:09.066Z,33.52
2022-08-07T12:40:46.700Z,31.79
2022-08-07T12:43:10.319Z,31.65
2022-08-07T12:45:59.006Z,32.03
2022-08-07T12:48:52.830Z,31.09
2022-08-07T12:51:33.132Z,32.47
2022-08-07T12:54:38.558Z,34.25
2022-08-07T12:57:09.673Z,34.72
2022-08-07T12:59:55.164Z,34.16
2022-08-07T13:02:49.441Z,34.78
2022-08-07T13:06:02.896Z,34.38
2022-08-07T13:08:34.033Z,35.10
2022-08-07T13:11:25.246Z,35.18
2022-08-07T13:14:04.137Z,35.64
2022-08-07T13:16:56.467Z,34.46
2022-08-07T13:19:50.581Z,33.93
2022-08-07T13:22:33.256Z,33.67
2022-08-07T13:25:09.783Z,33.65
2022-08-07T13:28:13.464Z,32.43
2022-08-07T13:30:49.138Z,31.97
2022-08-07T13:34:34.442Z,30.89
2022-08-07T13:36:26.957Z,33.09
2022-08-07T13:38:57.238Z,30.98
2022-08-07T13:41:42.887Z,32.68
2022-08-07T13:44:19.024Z,34.16
2022-08-07T13:46:57.027Z,33.59
2022-08-07T13:50:34.993Z,32.97
2022-08-07T13:52:26.476Z,31.64
2022-08-07T13:55:00.646Z,31.13
2022-08-07T13:57:38.123Z,30.44
2022-08-07T14:00:26.047Z,31.36
2022-08-07T14:02:56.713Z,32.40
2022-08-07T14:05:37.279Z,30.72
2022-08-07T14:08:07.997Z,29.96
2022-08-07T14:10:42.251Z,31.05
2022-08-07T14:13:17.945Z,31.63
2022-08-07T14:15:52.533Z,31.09
2022-08-07T14:18:34.901Z,31.53
2022-08-07T14:21:21.018Z,30.64
2022-08-07T14:24:28.509Z,30.35
2022-08-07T14:28:09.407Z,31.27
2022-08-07T14:30:05.164Z,30.05
2022-08-07T14:32:58.756Z,29.47
2022-08-07T14:35:45.158Z,30.81
2022-08-07T14:38:26.248Z,31.89
2022-08-07T14:41:14.939Z,30.23
2022-08-07T14:43:58.429Z,31.01
2022-08-07T14:46:33.520Z,30.51
2022-08-07T14:49:17.368Z,31.18
2022-08-07T14:52:04.280Z,30.98
2022-08-07T14:54:42.947Z,32.09
2022-08-07T14:57:15.034Z,31.75
2022-08-07T15:00:05.782Z,31.08
2022-08-07T15:05:23.606Z,33.09
2022-08-07T15:07:52.164Z,32.49
2022-08-07T15:12:54.810Z,30.98
2022-08-07T15:15:38.412Z,30.24
2022-08-07T15:18:14.576Z,31.57
2022-08-07T15:25:12.690Z,31.87
2022-08-07T15:26:22.654Z,32.03
2022-08-07T15:30:03.543Z,32.06
2022-08-07T15:34:36.952Z,31.74
2022-08-07T15:37:06.755Z,30.97
2022-08-07T15:48:36.101Z,30.35
2022-08-07T15:54:12.489Z,30.61
2022-08-07T15:56:41.815Z,30.81
2022-08-07T15:59:17.306Z,31.09
2022-08-07T16:02:01.987Z,31.64
2022-08-07T16:04:32.154Z,30.63
2022-08-07T16:07:04.698Z,31.12
2022-08-07T16:10:09.529Z,30.76
2022-08-07T16:13:04.760Z,30.50
2022-08-07T16:15:57.523Z,30.29
2022-08-07T16:18:49.796Z,30.07
2022-08-07T16:22:02.104Z,30.07
2022-08-07T16:24:52.512Z,29.81
2022-08-07T16:27:39.788Z,29.36
2022-08-07T16:30:29.499Z,29.98
2022-08-07T16:34:03.256Z,30.13
2022-08-07T16:36:31.226Z,30.03
2022-08-07T16:39:49.428Z,30.17
2022-08-07T16:42:39.817Z,29.49
2022-08-07T16:46:40.725Z,29.83
2022-08-07T16:48:34.473Z,29.33
2022-08-07T16:51:54.421Z,29.73
2022-08-07T16:54:35.098Z,29.21
2022-08-07T16:58:02.436Z,29.05
2022-08-07T17:00:29.683Z,29.39
2022-08-07T17:03:09.971Z,29.03
2022-08-07T17:06:28.926Z,29.34
2022-08-07T17:09:13.861Z,29.34
2022-08-07T17:12:01.799Z,29.19
2022-08-07T17:15:19.673Z,29.42
2022-08-07T17:17:47.368Z,29.55
2022-08-07T17:20:35.721Z,29.36
2022-08-07T17:23:22.936Z,29.29
2022-08-07T17:26:23.618Z,28.97
2022-08-07T17:30:13.018Z,29.16
2022-08-07T17:32:30.686Z,28.58
2022-08-07T17:35:50.983Z,28.21
2022-08-07T17:38:18.831Z,28.56
2022-08-07T17:42:02.415Z,28.97
2022-08-07T17:44:16.501Z,29.01
2022-08-07T17:47:04.556Z,28.59
2022-08-07T17:49:44.791Z,28.21
2022-08-07T17:52:35.044Z,28.85
2022-08-07T17:55:16.654Z,28.95
2022-08-07T17:58:05.501Z,29.29
2022-08-07T18:00:48.495Z,29.30
2022-08-07T18:04:04.326Z,29.47
2022-08-07T18:06:38.293Z,30.16
2022-08-07T18:09:08.521Z,28.21
2022-08-07T18:12:07.680Z,27.93
2022-08-07T18:14:46.667Z,29.62
2022-08-07T18:18:46.566Z,29.59
2022-08-07T18:21:03.994Z,29.08
2022-08-07T18:23:43.829Z,29.36
2022-08-07T18:26:21.059Z,29.10
2022-08-07T18:30:07.659Z,29.26
2022-08-07T18:32:24.503Z,29.40
2022-08-07T18:35:17.306Z,28.78
2022-08-07T18:38:58.252Z,28.56
2022-08-07T18:41:21.124Z,28.87
2022-08-07T18:44:03.836Z,28.03
2022-08-07T18:46:49.416Z,27.69
2022-08-07T18:50:31.092Z,27.57
2022-08-07T18:52:54.272Z,28.06
2022-08-07T18:55:56.229Z,27.70
2022-08-07T18:58:51.145Z,27.52
2022-08-07T19:02:18.842Z,27.43
2022-08-07T19:05:14.928Z,26.75
2022-08-07T19:07:58.186Z,27.24
2022-08-07T19:10:31.796Z,27.41
2022-08-07T19:13:33.833Z,27.39
2022-08-07T19:17:04.639Z,27.35
2022-08-07T19:19:13.200Z,26.29
2022-08-07T19:21:56.898Z,27.30
2022-08-07T19:24:43.457Z,27.23
2022-08-07T19:29:02.803Z,27.94
2022-08-07T19:31:05.330Z,28.59
2022-08-07T19:33:10.145Z,28.05
2022-08-07T19:35:44.486Z,28.49
2022-08-07T19:38:16.866Z,27.72
2022-08-07T19:40:49.579Z,27.63
2022-08-07T19:43:43.758Z,28.22
2022-08-07T19:46:26.571Z,28.09
2022-08-07T19:49:17.891Z,27.48
2022-08-07T19:52:05.481Z,28.34
2022-08-07T19:54:56.745Z,27.48
2022-08-07T19:58:12.604Z,27.72
2022-08-07T20:00:53.973Z,27.90
2022-08-07T20:03:35.296Z,27.75
2022-08-07T20:06:05.057Z,28.52
2022-08-07T20:08:34.741Z,29.08
2022-08-07T20:11:09.639Z,29.12
2022-08-07T20:13:49.927Z,29.13
2022-08-07T20:16:36.835Z,27.88
2022-08-07T20:19:10.157Z,28.90
2022-08-07T20:21:42.235Z,28.25
2022-08-07T20:24:23.550Z,28.33
2022-08-07T20:26:57.458Z,28.61
2022-08-07T20:29:48.671Z,28.27
2022-08-07T20:32:40.409Z,28.34
2022-08-07T20:35:15.898Z,27.64
2022-08-07T20:37:59.246Z,27.20
2022-08-07T20:40:31.630Z,27.77
2022-08-07T20:43:01.386Z,27.03
2022-08-07T20:45:33.281Z,27.57
2022-08-07T20:48:28.295Z,27.49
2022-08-07T20:51:00.961Z,27.37
2022-08-07T20:54:01.966Z,27.69
2022-08-07T20:56:16.125Z,27.81
2022-08-07T20:58:46.679Z,27.81
2022-08-07T21:01:19.999Z,27.74
2022-08-07T21:04:18.833Z,27.62
2022-08-07T21:06:38.489Z,27.52
2022-08-07T21:09:14.029Z,26.66
2022-08-07T21:11:50.531Z,27.01
2022-08-07T21:14:31.973Z,26.96
2022-08-07T21:18:01.875Z,26.08
2022-08-07T21:19:51.246Z,26.72
2022-08-07T21:22:29.155Z,26.97
2022-08-07T21:25:12.027Z,26.85
2022-08-07T21:27:58.888Z,26.54
2022-08-07T21:31:01.091Z,26.83
2022-08-07T21:33:41.884Z,27.25
2022-08-07T21:36:31.493Z,26.93
2022-08-07T21:39:47.952Z,28.14
2022-08-07T21:42:46.580Z,28.28
2022-08-07T21:46:09.032Z,28.30
2022-08-07T21:48:34.343Z,27.76
2022-08-07T21:51:20.417Z,27.20
2022-08-07T21:53:54.307Z,27.33
2022-08-07T21:56:49.203Z,26.76
2022-08-07T21:59:36.320Z,27.64
2022-08-07T22:02:27.805Z,28.01
2022-08-07T22:04:59.403Z,27.16
2022-08-07T22:07:31.679Z,27.50
2022-08-07T22:10:24.668Z,27.32
2022-08-07T22:12:59.443Z,27.06
2022-08-07T22:16:41.926Z,27.57
2022-08-07T22:18:38.422Z,27.45
2022-08-07T22:21:21.440Z,27.55
2022-08-07T22:24:13.511Z,27.38
2022-08-07T22:27:01.808Z,27.41
2022-08-07T22:29:47.361Z,27.37
2022-08-07T22:32:33.497Z,26.79
2022-08-07T22:35:02.118Z,26.71
2022-08-07T22:38:04.765Z,25.72
2022-08-07T22:41:03.180Z,25.91
2022-08-07T22:43:31.637Z,25.42
2022-08-07T22:46:46.805Z,25.05
2022-08-07T22:50:10.859Z,25.19
2022-08-07T22:54:09.115Z,24.59
2022-08-07T22:56:13.291Z,25.02
2022-08-07T22:59:04.968Z,26.08
2022-08-07T23:01:50.621Z,26.78
2022-08-07T23:04:56.916Z,26.31
2022-08-07T23:07:41.889Z,26.41
2022-08-07T23:10:38.429Z,24.89
2022-08-07T23:13:18.971Z,24.68
2022-08-07T23:16:39.234Z,23.91
2022-08-07T23:20:02.924Z,25.24
2022-08-07T23:22:45.169Z,24.90
2022-08-07T23:25:20.928Z,24.85
2022-08-07T23:28:22.236Z,25.49
2022-08-07T23:31:05.599Z,25.79
2022-08-07T23:34:24.005Z,26.19
2022-08-07T23:37:18.574Z,26.60
2022-08-07T23:39:59.610Z,27.60
2022-08-07T23:42:53.336Z,26.65
2022-08-07T23:46:01.472Z,24.75
2022-08-07T23:48:47.123Z,23.67
2022-08-07T23:53:00.969Z,23.92
2022-08-07T23:54:36.467Z,24.06
2022-08-07T23:57:18.579Z,23.32
